Ozan, Arkansas
Current Conditions -  °F | °C
As of 10:38 AM on Saturday 20 Dec 2014 (Local Time) from KTXK Reporting Station
Haze Haze  
Wind Chill: 44°   Ceiling: 1700
Heat Index: 44°   Visibility: 6mi
Dew Point: 39°   Wind: 3mph
Humidity: 82%   Direction: NA
Pressure: 30.27"   Gusts: NA
Location:  33.85°N, 93.72°W
Report Text: KTXK 201638Z AUTO VRB03KT 6SM HZ FEW009 BKN017 OVC038 07/04 A3027 RMK AO2 T00670039
Loading
Personal Weather Stations






























Interactive Weather Map New forecast layout! Learn more

10-Day Weather Forecast

Advertisements
Track Severe Weather on mobile